Terminal Aerodrome Forecast
Issued by NWS Lake Charles, LA

Home | Current Version | Previous Version | Text Only | Print | Product List | Glossary On
Versions: 1 2 3 4 5 6 7 8 9 10 11 12 13 14 15 16 17 18 19 20 21 22 23
000
FTUS44 KLCH 200804 AAA
TAFLCH
TAF AMD
KLCH 200804Z 2008/2106 16003KT P6SM SCT015
     FM201000 20003KT 3SM BR SCT004
      TEMPO 2010/2014 1/4SM FG VV004
     FM201500 22005KT 4SM BR BKN007 BKN020
     FM201600 22008KT P6SM FEW100 SCT250
     FM210000 16007KT P6SM VCTS BKN007CB OVC025 PROB30 2100/2106 3SM
      TSRA OVC007CB=

USA.gov is the U.S. government's official web portal to all federal, state and local government web resources and services.